Time;durP1;ratioP1;P1;durP2;ratioP2;P2;SDS_P1;SDS_P2;PMS_P1;PMS_P2;Temp;Humidity;BMP_temperature;BMP_pressure;BME280_temperature;BME280_humidity;BME280_pressure;Samples;Min_cycle;Max_cycle;Signal;HPM_P1;HPM_P2
2021/05/24 00:00:18;;;;;;;3.20;1.58;;;;;;;13.83;52.47;100924.56;5081637;28;20044;-48
2021/05/24 00:02:46;;;;;;;5.43;1.95;;;;;;;13.82;52.10;100920.16;5091009;28;20044;-49
2021/05/24 00:05:28;;;;;;;5.45;1.85;;;;;;;13.81;51.95;100913.88;5092227;28;20048;-49
2021/05/24 00:07:56;;;;;;;5.03;1.77;;;;;;;13.80;52.31;100919.63;5092206;28;20094;-48
2021/05/24 00:10:42;;;;;;;3.25;1.55;;;;;;;13.83;52.31;100903.47;5092407;28;20510;-47
2021/05/24 00:13:11;;;;;;;6.00;1.85;;;;;;;13.80;52.03;100903.19;5092650;28;20047;-51
2021/05/24 00:15:44;;;;;;;5.53;1.73;;;;;;;13.76;52.48;100907.63;5092173;28;20040;-48
2021/05/24 00:18:13;;;;;;;5.53;1.95;;;;;;;13.75;52.52;100900.50;5091513;28;20040;-48
2021/05/24 00:20:48;;;;;;;3.97;1.45;;;;;;;13.77;52.70;100898.31;5092603;28;20048;-50
2021/05/24 00:23:17;;;;;;;5.70;1.85;;;;;;;13.76;53.25;100885.72;5092787;28;20043;-51
2021/05/24 00:25:44;;;;;;;2.88;1.40;;;;;;;13.77;53.06;100881.88;5092925;28;20048;-51
2021/05/24 00:28:14;;;;;;;4.78;2.00;;;;;;;13.75;52.97;100879.41;5092297;28;20098;-48
2021/05/24 00:30:44;;;;;;;4.65;1.60;;;;;;;13.78;53.13;100875.28;5091363;28;20089;-50
2021/05/24 00:33:12;;;;;;;3.33;1.38;;;;;;;13.78;52.85;100878.84;5092081;28;20514;-50
2021/05/24 00:35:41;;;;;;;6.90;2.10;;;;;;;13.78;53.26;100872.53;5092017;28;20040;-45
2021/05/24 00:38:28;;;;;;;3.33;1.45;;;;;;;13.83;52.77;100869.78;5090772;28;20470;-49
2021/05/24 00:40:56;;;;;;;2.80;1.70;;;;;;;13.80;52.96;100867.59;5091623;28;20070;-49
2021/05/24 00:43:24;;;;;;;2.30;1.40;;;;;;;13.80;53.54;100875.81;5092078;28;20101;-49
2021/05/24 00:45:51;;;;;;;4.32;1.65;;;;;;;13.77;53.39;100871.72;5091744;28;20040;-47
2021/05/24 00:48:19;;;;;;;3.03;1.20;;;;;;;13.81;52.87;100866.50;5090630;28;20051;-49
2021/05/24 00:50:47;;;;;;;4.15;1.30;;;;;;;13.81;53.32;100861.03;5092035;28;20059;-46
2021/05/24 00:53:15;;;;;;;5.78;2.00;;;;;;;13.75;53.28;100859.44;5092033;28;20040;-48
2021/05/24 00:55:42;;;;;;;3.55;1.55;;;;;;;13.76;53.62;100852.88;5091823;28;20048;-47
2021/05/24 00:58:10;;;;;;;3.45;1.50;;;;;;;13.73;53.67;100851.50;5091953;28;20044;-47
2021/05/24 01:00:43;;;;;;;5.15;1.88;;;;;;;13.72;53.48;100844.41;5091601;28;20047;-46
2021/05/24 01:03:12;;;;;;;2.58;1.35;;;;;;;13.70;53.71;100848.53;5091614;28;20048;-45
2021/05/24 01:05:40;;;;;;;4.07;1.60;;;;;;;13.67;54.10;100838.16;5090572;28;20040;-45
2021/05/24 01:08:10;;;;;;;3.35;1.55;;;;;;;13.70;54.23;100826.63;5090644;28;20527;-49
2021/05/24 01:10:38;;;;;;;3.88;1.45;;;;;;;13.70;53.71;100829.38;5091777;28;20098;-48
2021/05/24 01:13:07;;;;;;;4.80;1.63;;;;;;;13.72;53.69;100825.22;5091887;28;20046;-51
2021/05/24 01:15:37;;;;;;;4.40;1.70;;;;;;;13.71;53.84;100818.13;5091388;28;20044;-50
2021/05/24 01:18:06;;;;;;;5.53;1.77;;;;;;;13.68;53.56;100806.94;5091515;28;20076;-46
2021/05/24 01:20:35;;;;;;;4.13;1.52;;;;;;;13.66;53.96;100811.88;5091721;28;20060;-46
2021/05/24 01:25:32;;;;;;;1.95;0.98;;;;;;;13.69;54.43;100806.66;5063292;28;20036;-49
2021/05/24 01:28:03;;;;;;;2.92;1.55;;;;;;;13.71;54.28;100806.34;5095399;28;20044;-48
2021/05/24 01:30:32;;;;;;;3.03;1.50;;;;;;;13.73;53.99;100798.66;5094805;28;20032;-46
2021/05/24 01:33:01;;;;;;;2.95;1.33;;;;;;;13.74;54.22;100795.63;5095487;28;20048;-49
2021/05/24 01:35:29;;;;;;;4.97;1.60;;;;;;;13.73;54.13;100794.00;5095149;28;20052;-47
2021/05/24 01:37:57;;;;;;;3.13;1.45;;;;;;;13.72;54.25;100794.28;5095581;28;20455;-48
2021/05/24 01:40:26;;;;;;;3.97;1.63;;;;;;;13.71;54.51;100785.28;5094613;28;20105;-48
2021/05/24 01:42:59;;;;;;;3.08;1.42;;;;;;;13.71;54.33;100789.91;5061400;28;20101;-46
2021/05/24 01:45:27;;;;;;;5.07;1.70;;;;;;;13.69;54.73;100790.22;5094720;28;20063;-49
2021/05/24 01:47:55;;;;;;;2.17;1.30;;;;;;;13.69;54.38;100772.97;5095094;28;20048;-48
2021/05/24 01:50:23;;;;;;;3.35;1.58;;;;;;;13.66;54.95;100773.53;5094905;28;20522;-49
2021/05/24 01:52:51;;;;;;;2.08;1.13;;;;;;;13.63;54.66;100770.28;5091349;28;20116;-49
2021/05/24 01:55:19;;;;;;;2.50;1.45;;;;;;;13.61;55.09;100772.50;5090543;28;20048;-48
2021/05/24 01:57:47;;;;;;;4.85;1.70;;;;;;;13.58;55.18;100761.31;5094907;28;20409;-48
2021/05/24 02:00:18;;;;;;;5.57;1.50;;;;;;;13.57;55.00;100771.44;5094552;28;20089;-48
2021/05/24 02:02:46;;;;;;;5.82;1.58;;;;;;;13.57;55.42;100771.44;5094732;28;20036;-49
2021/05/24 02:05:16;;;;;;;2.28;1.08;;;;;;;13.58;55.21;100775.81;5094631;28;20108;-48
2021/05/24 02:07:44;;;;;;;3.22;1.42;;;;;;;13.61;55.39;100772.50;5094650;28;20571;-48
2021/05/24 02:10:18;;;;;;;3.97;1.45;;;;;;;13.62;55.60;100765.09;5094292;28;20498;-50
2021/05/24 02:12:47;;;;;;;2.47;1.35;;;;;;;13.64;54.95;100755.50;5094778;28;20402;-49
2021/05/24 02:15:22;;;;;;;5.57;1.70;;;;;;;13.61;55.62;100757.97;5094323;28;20037;-50
2021/05/24 02:17:49;;;;;;;3.08;1.35;;;;;;;13.62;55.44;100757.69;5094891;28;20089;-48
2021/05/24 02:20:21;;;;;;;4.80;1.30;;;;;;;13.57;55.36;100757.75;5094719;28;20051;-48
2021/05/24 02:22:50;;;;;;;4.90;1.40;;;;;;;13.59;55.68;100749.25;5094746;28;20040;-48
2021/05/24 02:25:17;;;;;;;2.13;1.10;;;;;;;13.55;55.54;100743.53;5094409;28;20563;-48
2021/05/24 02:27:45;;;;;;;3.17;1.40;;;;;;;13.52;55.76;100741.38;5093873;28;20463;-47
2021/05/24 02:30:15;;;;;;;3.95;1.45;;;;;;;13.54;55.75;100749.28;5093940;28;20097;-46
2021/05/24 02:32:43;;;;;;;3.60;1.27;;;;;;;13.57;56.06;100746.00;5093979;28;20410;-48
2021/05/24 02:35:13;;;;;;;3.65;1.20;;;;;;;13.59;56.18;100747.34;5094319;28;20048;-47
2021/05/24 02:37:41;;;;;;;2.28;1.08;;;;;;;13.61;56.07;100741.56;5094255;28;20547;-49
2021/05/24 02:40:11;;;;;;;4.50;1.63;;;;;;;13.68;55.80;100730.25;5093822;28;20502;-48
2021/05/24 02:42:38;;;;;;;3.65;1.50;;;;;;;13.71;55.98;100733.25;5093520;28;20113;-51
2021/05/24 02:45:09;;;;;;;5.32;1.75;;;;;;;13.70;55.94;100733.53;5094731;28;20082;-52
2021/05/24 02:47:36;;;;;;;5.00;1.52;;;;;;;13.70;55.93;100736.25;5094429;28;20040;-52
2021/05/24 02:50:07;;;;;;;3.33;1.27;;;;;;;13.69;55.84;100732.72;5094529;28;20063;-52
2021/05/24 02:52:35;;;;;;;3.97;1.20;;;;;;;13.63;56.01;100739.34;5094171;28;20101;-49
2021/05/24 02:55:05;;;;;;;2.83;1.40;;;;;;;13.60;56.67;100735.28;5093939;28;20040;-49
2021/05/24 02:57:33;;;;;;;2.38;1.45;;;;;;;13.60;56.55;100727.06;5093328;28;20055;-52
2021/05/24 03:00:03;;;;;;;3.42;1.60;;;;;;;13.60;56.42;100723.50;5093455;28;20072;-49
2021/05/24 03:02:31;;;;;;;3.47;1.40;;;;;;;13.62;55.98;100730.31;5093777;28;20043;-48
2021/05/24 03:04:58;;;;;;;4.68;1.83;;;;;;;13.60;56.45;100724.31;5093743;28;20547;-48
2021/05/24 03:07:28;;;;;;;4.55;1.58;;;;;;;13.61;56.23;100723.22;5093664;28;20055;-47
2021/05/24 03:09:56;;;;;;;2.65;1.35;;;;;;;13.60;56.38;100724.31;5092072;28;20451;-47
2021/05/24 03:12:24;;;;;;;3.28;1.30;;;;;;;13.62;56.65;100727.59;5093063;28;20414;-48
2021/05/24 03:14:51;;;;;;;2.95;1.40;;;;;;;13.63;56.19;100722.91;5093453;28;20052;-47
2021/05/24 03:17:19;;;;;;;5.22;1.63;;;;;;;13.54;56.84;100722.75;5093639;28;20161;-47
2021/05/24 03:19:47;;;;;;;3.65;1.42;;;;;;;13.50;57.01;100718.97;5093574;28;20070;-49
2021/05/24 03:22:14;;;;;;;4.05;1.48;;;;;;;13.45;56.59;100719.00;5093288;28;20051;-48
2021/05/24 03:24:42;;;;;;;3.58;1.27;;;;;;;13.42;56.95;100708.63;5093389;28;20106;-48
2021/05/24 03:27:10;;;;;;;2.42;1.33;;;;;;;13.41;57.57;100720.69;5092780;28;20053;-49
2021/05/24 03:29:37;;;;;;;1.33;0.88;;;;;;;13.44;56.76;100703.69;5093378;28;20093;-49
2021/05/24 03:32:05;;;;;;;2.63;1.50;;;;;;;13.47;57.05;100711.34;5092894;28;20055;-48
2021/05/24 03:34:34;;;;;;;3.63;1.45;;;;;;;13.50;57.00;100708.00;5093242;28;20043;-49
2021/05/24 03:37:02;;;;;;;3.38;1.30;;;;;;;13.48;56.76;100703.94;5093268;28;20033;-48
2021/05/24 03:39:29;;;;;;;4.00;1.50;;;;;;;13.44;56.79;100711.91;5092790;28;20052;-48
2021/05/24 03:41:57;;;;;;;4.00;1.50;;;;;;;13.42;57.09;100705.88;5092420;28;20487;-49
2021/05/24 03:44:25;;;;;;;2.08;1.00;;;;;;;13.40;57.17;100708.13;5093008;28;20040;-48
2021/05/24 03:46:53;;;;;;;2.65;1.20;;;;;;;13.42;57.47;100712.19;5093083;28;20491;-49
2021/05/24 03:49:20;;;;;;;2.50;1.13;;;;;;;13.45;57.20;100710.81;5092572;28;20040;-47
2021/05/24 03:51:48;;;;;;;3.50;1.45;;;;;;;13.45;57.59;100707.25;5092858;28;20036;-48
2021/05/24 03:54:16;;;;;;;3.38;1.55;;;;;;;13.43;57.02;100707.53;5092529;28;20808;-46
2021/05/24 03:56:44;;;;;;;6.40;1.48;;;;;;;13.41;57.66;100712.47;5092572;28;20040;-46
2021/05/24 03:59:11;;;;;;;3.78;1.30;;;;;;;13.40;57.40;100705.38;5092649;28;20052;-49
2021/05/24 04:01:40;;;;;;;4.68;1.70;;;;;;;13.40;57.49;100700.72;5092499;28;20056;-48
2021/05/24 04:04:08;;;;;;;3.90;1.40;;;;;;;13.37;57.35;100706.78;5092762;28;20035;-48
2021/05/24 04:06:38;;;;;;;4.15;1.60;;;;;;;13.38;57.61;100704.84;5092422;28;20113;-49
2021/05/24 04:09:05;;;;;;;3.45;1.40;;;;;;;13.38;57.72;100704.84;5092243;28;20483;-49
2021/05/24 04:11:33;;;;;;;6.88;1.35;;;;;;;13.35;57.32;100698.03;5092318;28;20048;-49
2021/05/24 04:14:01;;;;;;;1.70;1.05;;;;;;;13.33;57.62;100697.50;5064714;28;20135;-50
2021/05/24 04:16:28;;;;;;;5.28;1.50;;;;;;;13.35;57.61;100695.31;5092288;28;20040;-50
2021/05/24 04:18:56;;;;;;;3.38;1.10;;;;;;;13.34;57.83;100695.59;5092306;28;20047;-49
2021/05/24 04:21:24;;;;;;;1.70;1.20;;;;;;;13.36;57.82;100696.13;5092306;28;20040;-49
2021/05/24 04:23:52;;;;;;;2.38;1.33;;;;;;;13.38;57.59;100696.66;5091916;28;20044;-50
2021/05/24 04:26:19;;;;;;;2.90;1.17;;;;;;;13.38;57.35;100688.44;5091269;28;20066;-52
2021/05/24 04:28:47;;;;;;;3.10;1.40;;;;;;;13.39;57.45;100684.59;5092091;28;20044;-51
2021/05/24 04:31:14;;;;;;;3.97;1.40;;;;;;;13.42;57.08;100689.47;5092137;28;20047;-52
2021/05/24 04:33:42;;;;;;;4.60;1.58;;;;;;;13.43;57.25;100688.38;5092037;28;20048;-50
2021/05/24 04:36:10;;;;;;;4.25;1.52;;;;;;;13.41;57.32;100687.84;5092158;28;20089;-52
2021/05/24 04:38:37;;;;;;;3.35;1.52;;;;;;;13.43;56.80;100691.13;5091718;28;20048;-48
2021/05/24 04:41:05;;;;;;;5.88;1.55;;;;;;;13.41;57.48;100687.84;5091580;28;20105;-49
2021/05/24 04:43:34;;;;;;;2.65;1.52;;;;;;;13.40;56.97;100691.72;5092259;28;20510;-49
2021/05/24 04:46:02;;;;;;;2.08;1.40;;;;;;;13.38;57.22;100680.22;5091746;28;20048;-48
2021/05/24 04:48:31;;;;;;;2.70;1.25;;;;;;;13.38;56.93;100682.97;5092131;28;20048;-52
2021/05/24 04:50:59;;;;;;;3.58;1.20;;;;;;;13.37;57.52;100684.91;5092205;28;20048;-48
2021/05/24 04:53:26;;;;;;;2.65;1.33;;;;;;;13.39;57.13;100679.09;5091297;28;20060;-48
2021/05/24 04:55:54;;;;;;;3.60;1.60;;;;;;;13.42;57.40;100679.38;5091901;28;20082;-49
2021/05/24 04:58:24;;;;;;;2.10;1.25;;;;;;;13.44;57.36;100676.31;5091910;28;20115;-50
2021/05/24 05:00:52;;;;;;;3.95;1.27;;;;;;;13.44;56.90;100670.84;5092111;28;20055;-50
2021/05/24 05:03:19;;;;;;;1.70;1.17;;;;;;;13.42;57.16;100681.25;5095746;28;20044;-48
2021/05/24 05:05:47;;;;;;;5.53;1.50;;;;;;;13.39;57.40;100682.66;5095940;28;20043;-48
2021/05/24 05:08:15;;;;;;;7.00;1.55;;;;;;;13.39;57.48;100681.84;5094888;28;20040;-50
2021/05/24 05:10:45;;;;;;;2.78;1.35;;;;;;;13.50;57.12;100674.34;5077474;28;20059;-53
2021/05/24 05:13:13;;;;;;;4.70;1.38;;;;;;;13.54;56.91;100676.22;5075359;28;20040;-47
2021/05/24 05:15:40;;;;;;;2.60;1.40;;;;;;;13.58;57.60;100681.91;5074813;28;20071;-49
2021/05/24 05:18:08;;;;;;;6.45;1.83;;;;;;;13.74;57.23;100680.63;5075375;28;20047;-49
2021/05/24 05:20:35;;;;;;;2.88;1.38;;;;;;;13.80;57.48;100689.59;5075048;28;20356;-48
2021/05/24 05:23:03;;;;;;;4.10;1.40;;;;;;;13.72;56.74;100677.38;5073766;28;20079;-47
2021/05/24 05:25:31;;;;;;;2.42;1.35;;;;;;;13.75;59.28;100675.97;5075074;28;20076;-47
2021/05/24 05:27:59;;;;;;;4.50;1.33;;;;;;;13.84;58.17;100682.41;5075175;28;20052;-50
2021/05/24 05:30:26;;;;;;;6.32;1.67;;;;;;;13.83;56.20;100686.28;5074687;28;20053;-49
2021/05/24 05:32:54;;;;;;;2.03;1.02;;;;;;;13.78;57.11;100694.53;5074846;28;20507;-50
2021/05/24 05:35:22;;;;;;;2.30;1.08;;;;;;;13.73;57.89;100683.66;5074767;28;20076;-49
2021/05/24 05:37:51;;;;;;;3.08;1.48;;;;;;;13.75;57.72;100679.50;5074669;28;20028;-49
2021/05/24 05:40:20;;;;;;;2.88;1.38;;;;;;;13.68;56.46;100680.97;5074650;28;20056;-48
2021/05/24 05:42:49;;;;;;;4.40;1.17;;;;;;;13.71;57.27;100686.69;5074513;28;20036;-47
2021/05/24 05:45:17;;;;;;;3.70;1.35;;;;;;;13.78;58.75;100675.38;5074837;28;20048;-47
2021/05/24 05:47:45;;;;;;;3.67;1.40;;;;;;;13.83;57.18;100683.53;5074466;28;20064;-49
2021/05/24 05:50:13;;;;;;;2.80;1.40;;;;;;;13.78;57.31;100686.31;5074686;28;20036;-47
2021/05/24 05:52:41;;;;;;;4.55;1.52;;;;;;;13.78;57.63;100686.31;5073974;28;20044;-47
2021/05/24 05:55:09;;;;;;;3.28;1.30;;;;;;;13.73;56.76;100683.66;5071312;28;20460;-46
2021/05/24 05:57:36;;;;;;;1.42;0.95;;;;;;;13.75;57.59;100686.91;5072524;28;20109;-48
2021/05/24 06:00:06;;;;;;;1.60;1.05;;;;;;;13.81;58.37;100685.75;5061348;28;20517;-49
2021/05/24 06:02:39;;;;;;;2.17;1.45;;;;;;;13.83;58.26;100689.84;5084508;28;20051;-46
2021/05/24 06:05:11;;;;;;;3.95;1.58;;;;;;;13.76;56.96;100686.63;5093403;28;20032;-48
2021/05/24 06:07:39;;;;;;;2.83;1.40;;;;;;;13.67;57.19;100690.31;5094418;28;20044;-50
2021/05/24 06:10:08;;;;;;;5.60;1.75;;;;;;;13.60;57.83;100696.94;5094237;28;20044;-51
2021/05/24 06:12:36;;;;;;;6.13;1.48;;;;;;;13.55;58.71;100694.25;5094253;28;20490;-49
2021/05/24 06:15:05;;;;;;;5.78;1.77;;;;;;;13.50;58.82;100688.84;5094828;28;20039;-48
2021/05/24 06:17:33;;;;;;;5.28;1.45;;;;;;;13.45;59.08;100694.38;5094244;28;20086;-46
2021/05/24 06:20:01;;;;;;;4.50;1.60;;;;;;;13.42;59.46;100678.53;5092825;28;20502;-48
2021/05/24 06:22:29;;;;;;;4.47;1.48;;;;;;;13.39;59.83;100695.53;5094314;28;20086;-46
2021/05/24 06:24:57;;;;;;;7.97;1.58;;;;;;;13.39;59.71;100695.53;5093283;28;20379;-46
2021/05/24 06:27:24;;;;;;;4.13;1.27;;;;;;;13.38;59.92;100693.91;5091939;28;20494;-50
2021/05/24 06:29:52;;;;;;;4.60;1.55;;;;;;;13.36;60.47;100685.16;5093288;28;20036;-49
2021/05/24 06:32:19;;;;;;;5.43;1.77;;;;;;;13.35;60.65;100686.28;5093189;28;20048;-52
2021/05/24 06:34:48;;;;;;;1.63;1.17;;;;;;;13.35;60.83;100689.03;5093061;28;20460;-49
2021/05/24 06:37:16;;;;;;;2.65;0.98;;;;;;;13.34;60.81;100687.38;5093240;28;20509;-48
2021/05/24 06:39:44;;;;;;;4.03;1.65;;;;;;;13.30;62.01;100681.69;5093049;28;20059;-50
2021/05/24 06:42:11;;;;;;;2.72;1.40;;;;;;;13.32;61.42;100684.13;5093380;28;20036;-49
2021/05/24 06:44:39;;;;;;;4.20;1.70;;;;;;;13.35;61.87;100689.03;5093022;28;20446;-49
2021/05/24 06:47:07;;;;;;;2.20;1.30;;;;;;;13.37;61.54;100675.84;5093393;28;20052;-48
2021/05/24 06:49:35;;;;;;;5.07;1.50;;;;;;;13.38;61.93;100685.69;5092351;28;20043;-47
2021/05/24 06:52:04;;;;;;;4.30;1.65;;;;;;;13.41;61.13;100685.13;5092977;28;20078;-48
2021/05/24 06:54:31;;;;;;;3.10;1.27;;;;;;;13.41;61.16;100688.66;5086520;28;20032;-49
2021/05/24 06:57:03;;;;;;;2.95;1.35;;;;;;;13.40;61.12;100698.00;5072614;28;20143;-49
2021/05/24 06:59:31;;;;;;;1.92;1.38;;;;;;;13.40;61.02;100702.66;5072480;28;20044;-48
2021/05/24 07:01:59;;;;;;;5.28;1.52;;;;;;;13.38;61.15;100693.91;5077499;28;20491;-48
2021/05/24 07:04:27;;;;;;;3.13;1.45;;;;;;;13.37;61.36;100697.75;5091116;28;20467;-47
2021/05/24 07:06:55;;;;;;;5.13;1.80;;;;;;;13.38;62.11;100686.50;5092617;28;20055;-49
2021/05/24 07:09:23;;;;;;;2.53;1.20;;;;;;;13.42;62.10;100686.72;5092695;28;20455;-50
2021/05/24 07:11:51;;;;;;;2.05;1.15;;;;;;;13.41;62.24;100690.59;5092584;28;20478;-49
2021/05/24 07:14:18;;;;;;;3.03;1.40;;;;;;;13.38;62.42;100691.97;5092470;28;20498;-49
2021/05/24 07:16:46;;;;;;;1.95;0.98;;;;;;;13.35;62.97;100687.09;5092409;28;20086;-49
2021/05/24 07:19:13;;;;;;;3.58;1.50;;;;;;;13.35;62.71;100689.03;5092183;28;20563;-51
2021/05/24 07:21:41;;;;;;;3.70;1.73;;;;;;;13.37;63.19;100681.31;5092771;28;20048;-49
2021/05/24 07:24:09;;;;;;;3.33;1.33;;;;;;;13.51;62.76;100682.25;5091842;28;20068;-46
2021/05/24 07:26:55;;;;;;;1.58;1.10;;;;;;;13.51;63.30;100689.66;5089796;28;20054;-49
2021/05/24 07:29:23;;;;;;;1.65;1.48;;;;;;;13.51;62.29;100686.91;4386331;28;10000712;-48
2021/05/24 07:31:50;;;;;;;1.65;0.95;;;;;;;13.48;62.52;100690.25;5090152;28;20043;-50
2021/05/24 07:34:18;;;;;;;6.35;1.85;;;;;;;13.56;62.66;100690.41;5089576;28;20070;-49
2021/05/24 07:36:45;;;;;;;2.15;1.17;;;;;;;13.69;62.96;100688.91;5090459;28;20047;-49
2021/05/24 07:39:13;;;;;;;3.83;1.05;;;;;;;13.80;62.50;100695.06;5089667;28;20105;-51
2021/05/24 07:41:41;;;;;;;2.88;1.33;;;;;;;13.72;62.31;100692.97;5089732;28;20048;-49
2021/05/24 07:44:09;;;;;;;4.45;1.55;;;;;;;13.76;62.98;100694.03;5089828;28;20059;-51
2021/05/24 07:46:40;;;;;;;3.80;1.70;;;;;;;13.83;62.37;100698.06;5090057;28;20071;-48
2021/05/24 07:49:08;;;;;;;1.40;1.30;;;;;;;13.85;62.51;100697.72;5089602;28;20048;-48
2021/05/24 07:51:36;;;;;;;2.83;1.35;;;;;;;13.74;61.86;100693.50;5090011;28;20055;-49
2021/05/24 07:54:04;;;;;;;4.90;1.20;;;;;;;13.71;62.79;100694.06;5089080;28;20063;-49
2021/05/24 07:56:31;;;;;;;4.05;1.55;;;;;;;13.82;62.48;100696.41;5082285;28;20456;-50
2021/05/24 07:58:59;;;;;;;3.03;1.67;;;;;;;13.82;62.83;100695.59;5089554;28;20048;-49
2021/05/24 08:01:27;;;;;;;9.32;2.22;;;;;;;13.78;62.71;100702.75;5088842;28;20051;-51
2021/05/24 08:03:54;;;;;;;6.95;2.22;;;;;;;13.75;63.47;100703.34;5089963;28;20072;-50
2021/05/24 08:06:22;;;;;;;5.38;1.60;;;;;;;13.69;63.42;100699.06;5089307;28;20040;-50
2021/05/24 08:08:50;;;;;;;5.35;2.20;;;;;;;13.80;64.05;100706.03;5088844;28;20040;-49
2021/05/24 08:11:18;;;;;;;3.35;1.63;;;;;;;13.85;63.66;100698.56;5089382;28;20044;-51
2021/05/24 08:13:46;;;;;;;4.20;1.40;;;;;;;13.95;63.81;100703.09;5089179;28;20048;-50
2021/05/24 08:16:18;;;;;;;6.95;2.10;;;;;;;14.03;63.51;100705.19;5088391;28;20096;-52
2021/05/24 08:18:46;;;;;;;3.22;1.45;;;;;;;13.97;63.63;100700.06;5088925;28;20113;-50
2021/05/24 08:21:14;;;;;;;8.10;2.03;;;;;;;14.04;64.07;100700.50;5089240;28;20048;-50
2021/05/24 08:23:43;;;;;;;5.75;1.63;;;;;;;14.14;62.57;100705.88;5089078;28;20059;-52
2021/05/24 08:26:12;;;;;;;4.00;1.77;;;;;;;14.15;62.13;100703.94;5087253;28;20032;-52
2021/05/24 08:28:39;;;;;;;9.63;2.70;;;;;;;14.21;62.03;100702.75;5086365;28;20796;-50
2021/05/24 08:31:07;;;;;;;7.10;1.95;;;;;;;13.95;63.06;100700.38;5088888;28;20101;-50
2021/05/24 08:33:36;;;;;;;2.33;1.23;;;;;;;13.80;62.77;100700.53;5088348;28;20089;-51
2021/05/24 08:36:04;;;;;;;4.68;1.80;;;;;;;13.69;63.09;100693.56;5088677;28;20102;-49
2021/05/24 08:38:32;;;;;;;3.00;1.30;;;;;;;13.47;64.06;100697.66;5089327;28;20055;-50
2021/05/24 08:41:06;;;;;;;5.38;1.67;;;;;;;13.45;64.31;100697.13;5088408;28;20449;-50
2021/05/24 08:43:38;;;;;;;5.38;2.10;;;;;;;13.45;64.20;100696.31;5089107;28;20051;-52
2021/05/24 08:46:07;;;;;;;7.90;2.47;;;;;;;13.63;64.50;100690.88;5088608;28;20048;-48
2021/05/24 08:48:35;;;;;;;9.68;2.42;;;;;;;13.93;64.13;100691.63;5087634;28;20512;-52
2021/05/24 08:51:05;;;;;;;6.57;2.53;;;;;;;14.03;63.44;100696.97;5089091;28;20101;-51
2021/05/24 08:53:33;;;;;;;4.85;2.15;;;;;;;14.09;63.53;100694.97;5088710;28;20532;-50
2021/05/24 08:56:01;;;;;;;5.15;1.90;;;;;;;14.13;63.16;100692.47;5080294;28;20040;-52
2021/05/24 08:58:29;;;;;;;4.40;1.83;;;;;;;14.07;62.80;100688.97;5088781;28;20056;-50
2021/05/24 09:00:56;;;;;;;7.28;2.33;;;;;;;14.13;63.56;100686.97;5088325;28;20098;-52
2021/05/24 09:03:25;;;;;;;5.10;2.03;;;;;;;14.23;62.79;100686.81;5088478;28;20048;-51
2021/05/24 09:05:54;;;;;;;7.25;2.05;;;;;;;14.30;63.30;100686.47;5088591;28;20551;-50
2021/05/24 09:08:34;;;;;;;4.35;1.60;;;;;;;14.23;63.24;100686.81;5088692;28;20705;-49
2021/05/24 09:11:02;;;;;;;8.05;2.22;;;;;;;14.33;62.53;100683.13;5088994;28;20962;-53
2021/05/24 09:13:32;;;;;;;5.22;1.75;;;;;;;14.37;63.03;100686.91;5088825;28;20051;-50
2021/05/24 09:16:05;;;;;;;6.32;2.30;;;;;;;14.27;63.28;100693.34;5088699;28;20043;-54
2021/05/24 09:18:33;;;;;;;8.52;2.67;;;;;;;14.30;63.84;100676.31;5088355;28;20172;-50
2021/05/24 09:21:00;;;;;;;5.15;1.80;;;;;;;14.52;62.43;100681.19;5088846;28;20066;-52
2021/05/24 09:23:29;;;;;;;8.25;2.78;;;;;;;14.34;63.33;100680.09;5079930;28;20049;-52
2021/05/24 09:26:11;;;;;;;5.78;2.20;;;;;;;14.23;63.57;100684.09;5068309;28;20036;-49
2021/05/24 09:28:46;;;;;;;7.18;2.35;;;;;;;14.34;64.06;100676.56;5067432;28;20083;-50
2021/05/24 09:31:20;;;;;;;6.28;1.80;;;;;;;14.19;64.82;100680.31;5068882;28;20056;-52
2021/05/24 09:33:54;;;;;;;5.25;1.98;;;;;;;14.19;65.07;100680.31;5069313;28;20064;-53
2021/05/24 09:36:22;;;;;;;4.22;1.40;;;;;;;14.10;65.23;100682.09;5069283;28;20094;-51
2021/05/24 09:38:58;;;;;;;4.25;1.77;;;;;;;14.02;64.94;100676.16;5068092;28;20083;-49
2021/05/24 09:41:26;;;;;;;5.43;2.10;;;;;;;13.93;66.74;100674.38;5066782;28;20060;-45
2021/05/24 09:43:56;;;;;;;5.53;1.85;;;;;;;13.87;68.13;100668.13;5067904;28;20036;-49
2021/05/24 09:46:26;;;;;;;4.55;2.08;;;;;;;13.83;68.09;100672.59;5067424;28;20511;-47
2021/05/24 09:49:03;;;;;;;4.05;1.88;;;;;;;13.87;66.87;100668.13;5071410;28;20033;-49
2021/05/24 09:51:32;;;;;;;4.97;2.15;;;;;;;13.83;66.82;100667.91;5063243;28;20044;-50
2021/05/24 09:54:10;;;;;;;5.15;1.70;;;;;;;13.83;67.03;100669.84;5071486;28;20048;-50
2021/05/24 09:56:41;;;;;;;2.88;1.42;;;;;;;13.75;67.29;100671.28;5065795;28;20044;-50
2021/05/24 09:59:16;;;;;;;7.05;2.33;;;;;;;13.94;65.46;100671.31;5071319;28;20061;-48
2021/05/24 10:01:48;;;;;;;5.18;2.13;;;;;;;14.22;64.46;100669.56;5064549;28;20044;-49
2021/05/24 10:04:18;;;;;;;4.25;1.73;;;;;;;14.02;65.94;100670.69;5091271;28;20184;-54
2021/05/24 10:06:47;;;;;;;4.10;1.90;;;;;;;13.82;66.68;100665.47;5091770;28;20341;-50
2021/05/24 10:09:17;;;;;;;3.70;1.80;;;;;;;13.66;67.80;100669.50;5093529;28;20043;-50
2021/05/24 10:11:47;;;;;;;7.30;1.75;;;;;;;13.56;68.87;100668.50;5080224;28;20040;-50
2021/05/24 10:14:20;;;;;;;4.10;1.80;;;;;;;13.61;68.54;100665.72;5093631;28;20387;-49
2021/05/24 10:17:07;;;;;;;5.07;1.90;;;;;;;13.83;67.35;100661.63;5093762;28;20048;-51
2021/05/24 10:19:34;;;;;;;3.53;1.90;;;;;;;13.80;67.04;100662.19;5092628;28;20293;-50
2021/05/24 10:22:02;;;;;;;3.88;1.70;;;;;;;13.81;67.99;100667.41;5092686;28;20054;-49
2021/05/24 10:24:30;;;;;;;6.00;2.40;;;;;;;14.02;67.26;100667.94;5094125;28;20044;-50
2021/05/24 10:27:00;;;;;;;3.97;1.95;;;;;;;14.09;67.00;100664.00;5090546;28;20415;-48
2021/05/24 10:29:29;;;;;;;4.10;1.90;;;;;;;14.24;66.20;100652.84;5093389;28;20040;-47
2021/05/24 10:31:58;;;;;;;4.20;2.03;;;;;;;14.23;66.25;100653.94;5093568;28;20036;-50
2021/05/24 10:34:26;;;;;;;11.13;2.35;;;;;;;14.31;65.74;100650.56;5093553;28;20048;-48
2021/05/24 10:37:13;;;;;;;5.88;1.70;;;;;;;14.21;66.82;100650.69;5093760;28;20551;-49
2021/05/24 10:39:54;;;;;;;4.88;2.15;;;;;;;14.25;66.65;100646.25;4720500;28;10000690;-53
2021/05/24 10:42:43;;;;;;;1.38;1.27;;;;;;;14.06;67.63;100647.06;5090894;28;20051;-50
2021/05/24 10:45:23;;;;;;;2.28;1.30;;;;;;;13.90;69.20;100642.88;5091401;28;20086;-49
2021/05/24 10:47:52;;;;;;;2.20;1.35;;;;;;;13.85;70.10;100645.69;5089639;28;20510;-53
2021/05/24 10:50:20;;;;;;;1.00;0.90;;;;;;;13.82;70.00;100643.56;5090419;28;20674;-48
2021/05/24 10:53:07;;;;;;;4.57;1.58;;;;;;;13.92;68.91;100646.16;5090846;28;20040;-51
2021/05/24 10:55:37;;;;;;;7.57;2.20;;;;;;;14.07;69.12;100640.47;5084665;28;20040;-51
2021/05/24 10:58:14;;;;;;;4.03;1.77;;;;;;;14.25;67.61;100635.28;5089615;28;20181;-49
2021/05/24 11:00:59;;;;;;;3.45;1.67;;;;;;;14.17;68.68;100633.22;5091011;28;20486;-50
2021/05/24 11:03:27;;;;;;;4.60;2.10;;;;;;;14.30;67.96;100637.13;5084311;28;20521;-49
2021/05/24 11:06:16;;;;;;;5.72;2.08;;;;;;;14.31;67.50;100638.75;5089346;28;20125;-49
2021/05/24 11:09:01;;;;;;;2.70;1.70;;;;;;;14.39;67.72;100641.66;5090367;28;20044;-50
2021/05/24 11:11:30;;;;;;;5.78;2.25;;;;;;;14.43;67.03;100636.38;5089704;28;20040;-51
2021/05/24 11:14:06;;;;;;;3.80;1.88;;;;;;;14.53;66.43;100640.88;5090531;28;20093;-49
2021/05/24 11:16:35;;;;;;;3.63;1.42;;;;;;;14.75;65.51;100638.34;5089345;28;20102;-50
2021/05/24 11:19:13;;;;;;;2.83;1.45;;;;;;;14.72;65.31;100633.47;5090611;28;20043;-51
2021/05/24 11:21:46;;;;;;;4.35;1.70;;;;;;;14.52;65.91;100633.78;5090720;28;20520;-47
2021/05/24 11:24:34;;;;;;;5.85;2.15;;;;;;;14.57;65.75;100628.22;5090439;28;20067;-52
2021/05/24 11:27:12;;;;;;;5.88;1.90;;;;;;;14.56;66.13;100637.59;5087448;28;20071;-50
2021/05/24 11:29:43;;;;;;;2.05;1.17;;;;;;;14.40;66.30;100635.03;5090267;28;20089;-50
2021/05/24 11:32:27;;;;;;;2.35;1.27;;;;;;;14.28;66.74;100634.69;5090102;28;20052;-50
2021/05/24 11:34:56;;;;;;;2.35;1.38;;;;;;;14.10;66.25;100647.28;5090500;28;20047;-50
2021/05/24 11:37:42;;;;;;;1.73;1.45;;;;;;;14.03;65.75;100628.47;5090207;28;20048;-49